sensor_id;sensor_type;location;lat;lon;timestamp;P1;durP1;ratioP1;P2;durP2;ratioP2
79640;SDS011;69115;49.904;14.390;2023-05-07T00:00:08;25.35;;;14.32;;
79640;SDS011;69115;49.904;14.390;2023-05-07T00:02:34;22.17;;;14.70;;
79640;SDS011;69115;49.904;14.390;2023-05-07T00:05:00;24.52;;;15.07;;
79640;SDS011;69115;49.904;14.390;2023-05-07T00:07:27;19.77;;;11.52;;
79640;SDS011;69115;49.904;14.390;2023-05-07T00:09:53;21.88;;;14.40;;
79640;SDS011;69115;49.904;14.390;2023-05-07T00:12:18;22.17;;;13.75;;
79640;SDS011;69115;49.904;14.390;2023-05-07T00:14:43;21.50;;;13.52;;
79640;SDS011;69115;49.904;14.390;2023-05-07T00:17:09;21.40;;;13.05;;
79640;SDS011;69115;49.904;14.390;2023-05-07T00:19:34;25.40;;;13.95;;
79640;SDS011;69115;49.904;14.390;2023-05-07T00:22:00;24.13;;;14.98;;
79640;SDS011;69115;49.904;14.390;2023-05-07T00:24:25;22.52;;;14.07;;
79640;SDS011;69115;49.904;14.390;2023-05-07T00:26:50;24.10;;;15.35;;
79640;SDS011;69115;49.904;14.390;2023-05-07T00:29:17;22.77;;;14.40;;
79640;SDS011;69115;49.904;14.390;2023-05-07T00:31:43;22.15;;;13.40;;
79640;SDS011;69115;49.904;14.390;2023-05-07T00:34:08;23.33;;;14.75;;
79640;SDS011;69115;49.904;14.390;2023-05-07T00:36:33;24.10;;;13.68;;
79640;SDS011;69115;49.904;14.390;2023-05-07T00:38:59;25.30;;;15.35;;
79640;SDS011;69115;49.904;14.390;2023-05-07T00:41:25;24.27;;;13.88;;
79640;SDS011;69115;49.904;14.390;2023-05-07T00:43:51;20.15;;;12.38;;
79640;SDS011;69115;49.904;14.390;2023-05-07T00:46:16;20.58;;;12.43;;
79640;SDS011;69115;49.904;14.390;2023-05-07T00:48:42;23.33;;;14.70;;
79640;SDS011;69115;49.904;14.390;2023-05-07T00:51:09;26.77;;;15.23;;
79640;SDS011;69115;49.904;14.390;2023-05-07T00:53:36;26.70;;;16.20;;
79640;SDS011;69115;49.904;14.390;2023-05-07T00:56:01;24.88;;;15.02;;
79640;SDS011;69115;49.904;14.390;2023-05-07T00:58:27;27.75;;;15.82;;
79640;SDS011;69115;49.904;14.390;2023-05-07T01:00:52;23.73;;;14.80;;
79640;SDS011;69115;49.904;14.390;2023-05-07T01:03:18;26.70;;;15.27;;
79640;SDS011;69115;49.904;14.390;2023-05-07T01:05:44;25.52;;;14.98;;
79640;SDS011;69115;49.904;14.390;2023-05-07T01:08:11;27.60;;;16.40;;
79640;SDS011;69115;49.904;14.390;2023-05-07T01:10:37;25.77;;;14.98;;
79640;SDS011;69115;49.904;14.390;2023-05-07T01:13:02;27.60;;;15.30;;
79640;SDS011;69115;49.904;14.390;2023-05-07T01:15:28;25.08;;;15.18;;
79640;SDS011;69115;49.904;14.390;2023-05-07T01:17:53;21.52;;;14.02;;
79640;SDS011;69115;49.904;14.390;2023-05-07T01:20:21;23.60;;;13.07;;
79640;SDS011;69115;49.904;14.390;2023-05-07T01:22:47;20.30;;;13.45;;
79640;SDS011;69115;49.904;14.390;2023-05-07T01:25:13;24.30;;;14.85;;
79640;SDS011;69115;49.904;14.390;2023-05-07T01:27:41;20.08;;;13.27;;
79640;SDS011;69115;49.904;14.390;2023-05-07T01:30:06;24.05;;;13.65;;
79640;SDS011;69115;49.904;14.390;2023-05-07T01:32:33;23.60;;;14.23;;
79640;SDS011;69115;49.904;14.390;2023-05-07T01:35:05;21.00;;;13.75;;
79640;SDS011;69115;49.904;14.390;2023-05-07T01:37:32;26.70;;;15.82;;
79640;SDS011;69115;49.904;14.390;2023-05-07T01:39:58;23.88;;;14.77;;
79640;SDS011;69115;49.904;14.390;2023-05-07T01:42:24;23.67;;;13.82;;
79640;SDS011;69115;49.904;14.390;2023-05-07T01:44:49;28.05;;;16.92;;
79640;SDS011;69115;49.904;14.390;2023-05-07T01:47:15;23.50;;;15.43;;
79640;SDS011;69115;49.904;14.390;2023-05-07T01:49:41;23.52;;;15.80;;
79640;SDS011;69115;49.904;14.390;2023-05-07T01:52:07;27.08;;;16.00;;
79640;SDS011;69115;49.904;14.390;2023-05-07T01:54:32;19.50;;;11.90;;
79640;SDS011;69115;49.904;14.390;2023-05-07T01:56:58;25.25;;;16.13;;
79640;SDS011;69115;49.904;14.390;2023-05-07T01:59:23;27.35;;;15.65;;
79640;SDS011;69115;49.904;14.390;2023-05-07T02:01:49;24.45;;;15.02;;
79640;SDS011;69115;49.904;14.390;2023-05-07T02:04:14;24.40;;;14.98;;
79640;SDS011;69115;49.904;14.390;2023-05-07T02:06:39;22.75;;;14.38;;
79640;SDS011;69115;49.904;14.390;2023-05-07T02:09:05;22.15;;;14.68;;
79640;SDS011;69115;49.904;14.390;2023-05-07T02:11:30;24.48;;;15.90;;
79640;SDS011;69115;49.904;14.390;2023-05-07T02:13:55;21.05;;;13.00;;
79640;SDS011;69115;49.904;14.390;2023-05-07T02:16:21;20.88;;;13.93;;
79640;SDS011;69115;49.904;14.390;2023-05-07T02:18:48;27.35;;;15.65;;
79640;SDS011;69115;49.904;14.390;2023-05-07T02:21:13;25.35;;;15.73;;
79640;SDS011;69115;49.904;14.390;2023-05-07T02:23:38;25.25;;;15.25;;
79640;SDS011;69115;49.904;14.390;2023-05-07T02:26:04;26.38;;;16.17;;
79640;SDS011;69115;49.904;14.390;2023-05-07T02:28:29;23.20;;;14.60;;
79640;SDS011;69115;49.904;14.390;2023-05-07T02:30:55;24.60;;;15.68;;
79640;SDS011;69115;49.904;14.390;2023-05-07T02:33:20;21.23;;;12.30;;
79640;SDS011;69115;49.904;14.390;2023-05-07T02:35:46;18.80;;;12.43;;
79640;SDS011;69115;49.904;14.390;2023-05-07T02:38:11;22.45;;;14.27;;
79640;SDS011;69115;49.904;14.390;2023-05-07T02:40:36;26.05;;;15.90;;
79640;SDS011;69115;49.904;14.390;2023-05-07T02:43:05;22.98;;;14.63;;
79640;SDS011;69115;49.904;14.390;2023-05-07T02:45:31;26.67;;;14.88;;
79640;SDS011;69115;49.904;14.390;2023-05-07T02:47:57;23.55;;;14.35;;
79640;SDS011;69115;49.904;14.390;2023-05-07T02:50:23;25.08;;;15.43;;
79640;SDS011;69115;49.904;14.390;2023-05-07T02:52:48;26.17;;;15.25;;
79640;SDS011;69115;49.904;14.390;2023-05-07T02:55:14;24.50;;;13.82;;
79640;SDS011;69115;49.904;14.390;2023-05-07T02:57:39;27.67;;;15.88;;
79640;SDS011;69115;49.904;14.390;2023-05-07T03:00:12;21.83;;;14.65;;
79640;SDS011;69115;49.904;14.390;2023-05-07T03:02:39;26.23;;;15.40;;
79640;SDS011;69115;49.904;14.390;2023-05-07T03:05:04;23.33;;;15.35;;
79640;SDS011;69115;49.904;14.390;2023-05-07T03:07:30;22.40;;;13.00;;
79640;SDS011;69115;49.904;14.390;2023-05-07T03:09:56;24.67;;;14.50;;
79640;SDS011;69115;49.904;14.390;2023-05-07T03:12:21;25.92;;;14.15;;
79640;SDS011;69115;49.904;14.390;2023-05-07T03:14:46;26.38;;;14.82;;
79640;SDS011;69115;49.904;14.390;2023-05-07T03:17:12;26.02;;;14.43;;
79640;SDS011;69115;49.904;14.390;2023-05-07T03:19:37;23.35;;;15.15;;
79640;SDS011;69115;49.904;14.390;2023-05-07T03:22:02;23.13;;;14.45;;
79640;SDS011;69115;49.904;14.390;2023-05-07T03:24:28;19.17;;;11.07;;
79640;SDS011;69115;49.904;14.390;2023-05-07T03:26:53;27.70;;;14.98;;
79640;SDS011;69115;49.904;14.390;2023-05-07T03:29:18;24.35;;;14.88;;
79640;SDS011;69115;49.904;14.390;2023-05-07T03:31:44;20.45;;;12.95;;
79640;SDS011;69115;49.904;14.390;2023-05-07T03:34:10;26.55;;;15.43;;
79640;SDS011;69115;49.904;14.390;2023-05-07T03:36:35;23.15;;;15.68;;
79640;SDS011;69115;49.904;14.390;2023-05-07T03:39:00;24.55;;;13.43;;
79640;SDS011;69115;49.904;14.390;2023-05-07T03:41:26;21.83;;;13.68;;
79640;SDS011;69115;49.904;14.390;2023-05-07T03:43:51;27.08;;;14.75;;
79640;SDS011;69115;49.904;14.390;2023-05-07T03:46:17;26.42;;;15.70;;
79640;SDS011;69115;49.904;14.390;2023-05-07T03:48:42;19.65;;;12.32;;
79640;SDS011;69115;49.904;14.390;2023-05-07T03:51:07;23.92;;;15.25;;
79640;SDS011;69115;49.904;14.390;2023-05-07T03:53:33;25.00;;;13.02;;
79640;SDS011;69115;49.904;14.390;2023-05-07T03:55:58;24.15;;;15.57;;
79640;SDS011;69115;49.904;14.390;2023-05-07T03:58:24;22.75;;;13.35;;
79640;SDS011;69115;49.904;14.390;2023-05-07T04:00:49;27.80;;;15.75;;
79640;SDS011;69115;49.904;14.390;2023-05-07T04:03:14;24.10;;;15.70;;
79640;SDS011;69115;49.904;14.390;2023-05-07T04:05:40;20.67;;;13.32;;
79640;SDS011;69115;49.904;14.390;2023-05-07T04:08:06;21.77;;;14.00;;
79640;SDS011;69115;49.904;14.390;2023-05-07T04:10:31;24.65;;;14.25;;
79640;SDS011;69115;49.904;14.390;2023-05-07T04:12:56;21.20;;;12.75;;
79640;SDS011;69115;49.904;14.390;2023-05-07T04:15:23;23.35;;;14.65;;
79640;SDS011;69115;49.904;14.390;2023-05-07T04:17:48;21.98;;;13.52;;
79640;SDS011;69115;49.904;14.390;2023-05-07T04:20:14;24.45;;;14.30;;
79640;SDS011;69115;49.904;14.390;2023-05-07T04:22:40;21.80;;;13.65;;
79640;SDS011;69115;49.904;14.390;2023-05-07T04:25:06;22.13;;;14.35;;
79640;SDS011;69115;49.904;14.390;2023-05-07T04:27:34;19.50;;;12.50;;
79640;SDS011;69115;49.904;14.390;2023-05-07T04:29:59;19.95;;;13.15;;
79640;SDS011;69115;49.904;14.390;2023-05-07T04:32:25;22.65;;;13.77;;
79640;SDS011;69115;49.904;14.390;2023-05-07T04:34:51;22.13;;;13.60;;
79640;SDS011;69115;49.904;14.390;2023-05-07T04:37:17;17.10;;;11.60;;
79640;SDS011;69115;49.904;14.390;2023-05-07T04:39:42;16.52;;;10.65;;
79640;SDS011;69115;49.904;14.390;2023-05-07T04:42:08;15.95;;;10.45;;
79640;SDS011;69115;49.904;14.390;2023-05-07T04:44:34;17.95;;;11.25;;
79640;SDS011;69115;49.904;14.390;2023-05-07T04:47:00;17.90;;;12.00;;
79640;SDS011;69115;49.904;14.390;2023-05-07T04:49:25;17.60;;;10.93;;
79640;SDS011;69115;49.904;14.390;2023-05-07T04:51:51;21.58;;;13.10;;
79640;SDS011;69115;49.904;14.390;2023-05-07T04:54:16;16.95;;;9.95;;
79640;SDS011;69115;49.904;14.390;2023-05-07T04:56:41;21.50;;;12.52;;
79640;SDS011;69115;49.904;14.390;2023-05-07T04:59:07;19.95;;;13.00;;
79640;SDS011;69115;49.904;14.390;2023-05-07T05:01:32;18.85;;;11.55;;
79640;SDS011;69115;49.904;14.390;2023-05-07T05:03:58;18.10;;;11.32;;
79640;SDS011;69115;49.904;14.390;2023-05-07T05:06:25;21.02;;;13.32;;
79640;SDS011;69115;49.904;14.390;2023-05-07T05:08:50;18.42;;;10.15;;
79640;SDS011;69115;49.904;14.390;2023-05-07T05:11:16;20.27;;;11.82;;
79640;SDS011;69115;49.904;14.390;2023-05-07T05:13:41;18.95;;;12.30;;
79640;SDS011;69115;49.904;14.390;2023-05-07T05:16:07;18.50;;;12.00;;
79640;SDS011;69115;49.904;14.390;2023-05-07T05:18:32;20.02;;;12.00;;
79640;SDS011;69115;49.904;14.390;2023-05-07T05:20:58;15.30;;;9.82;;
79640;SDS011;69115;49.904;14.390;2023-05-07T05:23:23;17.15;;;10.75;;
79640;SDS011;69115;49.904;14.390;2023-05-07T05:25:48;15.65;;;10.02;;
79640;SDS011;69115;49.904;14.390;2023-05-07T05:28:14;17.05;;;10.85;;
79640;SDS011;69115;49.904;14.390;2023-05-07T05:30:39;14.43;;;10.15;;
79640;SDS011;69115;49.904;14.390;2023-05-07T05:33:05;17.73;;;10.15;;
79640;SDS011;69115;49.904;14.390;2023-05-07T05:35:30;13.60;;;8.55;;
79640;SDS011;69115;49.904;14.390;2023-05-07T05:37:56;16.33;;;10.68;;
79640;SDS011;69115;49.904;14.390;2023-05-07T05:40:22;18.45;;;11.82;;
79640;SDS011;69115;49.904;14.390;2023-05-07T05:42:47;17.70;;;11.02;;
79640;SDS011;69115;49.904;14.390;2023-05-07T05:45:13;15.27;;;9.77;;
79640;SDS011;69115;49.904;14.390;2023-05-07T05:47:38;20.42;;;10.90;;
79640;SDS011;69115;49.904;14.390;2023-05-07T05:50:05;18.73;;;10.82;;
79640;SDS011;69115;49.904;14.390;2023-05-07T05:52:31;17.52;;;11.20;;
79640;SDS011;69115;49.904;14.390;2023-05-07T05:54:57;16.65;;;10.77;;
79640;SDS011;69115;49.904;14.390;2023-05-07T05:57:22;19.38;;;10.90;;
79640;SDS011;69115;49.904;14.390;2023-05-07T05:59:48;17.10;;;10.65;;
79640;SDS011;69115;49.904;14.390;2023-05-07T06:02:13;17.45;;;11.07;;
79640;SDS011;69115;49.904;14.390;2023-05-07T06:04:39;14.23;;;8.98;;
79640;SDS011;69115;49.904;14.390;2023-05-07T06:07:04;15.70;;;8.95;;
79640;SDS011;69115;49.904;14.390;2023-05-07T06:09:30;13.98;;;9.50;;
79640;SDS011;69115;49.904;14.390;2023-05-07T06:11:56;16.08;;;9.80;;
79640;SDS011;69115;49.904;14.390;2023-05-07T06:14:21;13.50;;;8.38;;
79640;SDS011;69115;49.904;14.390;2023-05-07T06:16:46;14.95;;;9.20;;
79640;SDS011;69115;49.904;14.390;2023-05-07T06:19:12;15.77;;;9.23;;
79640;SDS011;69115;49.904;14.390;2023-05-07T06:21:38;13.73;;;8.95;;
79640;SDS011;69115;49.904;14.390;2023-05-07T06:24:04;13.20;;;9.07;;
79640;SDS011;69115;49.904;14.390;2023-05-07T06:26:30;13.30;;;9.02;;
79640;SDS011;69115;49.904;14.390;2023-05-07T06:28:55;12.65;;;9.00;;
79640;SDS011;69115;49.904;14.390;2023-05-07T06:31:21;12.75;;;9.15;;
79640;SDS011;69115;49.904;14.390;2023-05-07T06:33:46;12.27;;;8.32;;
79640;SDS011;69115;49.904;14.390;2023-05-07T06:36:12;11.90;;;8.82;;
79640;SDS011;69115;49.904;14.390;2023-05-07T06:38:37;13.13;;;8.98;;
79640;SDS011;69115;49.904;14.390;2023-05-07T06:41:03;13.35;;;8.07;;
79640;SDS011;69115;49.904;14.390;2023-05-07T06:43:28;13.13;;;9.13;;
79640;SDS011;69115;49.904;14.390;2023-05-07T06:45:54;12.93;;;8.98;;
79640;SDS011;69115;49.904;14.390;2023-05-07T06:48:19;12.18;;;7.97;;
79640;SDS011;69115;49.904;14.390;2023-05-07T06:50:45;13.05;;;8.10;;
79640;SDS011;69115;49.904;14.390;2023-05-07T06:53:10;12.82;;;8.60;;
79640;SDS011;69115;49.904;14.390;2023-05-07T06:55:36;13.30;;;9.25;;
79640;SDS011;69115;49.904;14.390;2023-05-07T06:58:03;12.50;;;8.50;;
79640;SDS011;69115;49.904;14.390;2023-05-07T07:00:28;10.93;;;6.82;;
79640;SDS011;69115;49.904;14.390;2023-05-07T07:02:54;11.20;;;8.02;;
79640;SDS011;69115;49.904;14.390;2023-05-07T07:05:20;11.52;;;7.63;;
79640;SDS011;69115;49.904;14.390;2023-05-07T07:07:45;13.38;;;8.38;;
79640;SDS011;69115;49.904;14.390;2023-05-07T07:10:17;11.27;;;7.68;;
79640;SDS011;69115;49.904;14.390;2023-05-07T07:12:46;11.35;;;7.63;;
79640;SDS011;69115;49.904;14.390;2023-05-07T07:15:11;11.90;;;7.32;;
79640;SDS011;69115;49.904;14.390;2023-05-07T07:17:37;10.77;;;7.57;;
79640;SDS011;69115;49.904;14.390;2023-05-07T07:20:02;9.35;;;6.53;;
79640;SDS011;69115;49.904;14.390;2023-05-07T07:22:28;12.10;;;7.90;;
79640;SDS011;69115;49.904;14.390;2023-05-07T07:24:54;10.88;;;7.65;;
79640;SDS011;69115;49.904;14.390;2023-05-07T07:27:19;10.88;;;7.15;;
79640;SDS011;69115;49.904;14.390;2023-05-07T07:29:44;10.20;;;6.93;;
79640;SDS011;69115;49.904;14.390;2023-05-07T07:32:10;10.60;;;6.57;;
79640;SDS011;69115;49.904;14.390;2023-05-07T07:34:35;9.90;;;6.93;;
79640;SDS011;69115;49.904;14.390;2023-05-07T07:37:01;10.32;;;6.97;;
79640;SDS011;69115;49.904;14.390;2023-05-07T07:39:30;9.27;;;6.80;;
79640;SDS011;69115;49.904;14.390;2023-05-07T07:41:56;8.13;;;5.78;;
79640;SDS011;69115;49.904;14.390;2023-05-07T07:44:21;9.45;;;6.82;;
79640;SDS011;69115;49.904;14.390;2023-05-07T07:46:47;11.40;;;7.40;;
79640;SDS011;69115;49.904;14.390;2023-05-07T07:49:12;8.15;;;5.75;;
79640;SDS011;69115;49.904;14.390;2023-05-07T07:51:37;9.48;;;6.18;;
79640;SDS011;69115;49.904;14.390;2023-05-07T07:54:03;10.55;;;7.30;;
79640;SDS011;69115;49.904;14.390;2023-05-07T07:56:29;10.65;;;6.78;;
79640;SDS011;69115;49.904;14.390;2023-05-07T07:58:54;9.63;;;7.20;;
79640;SDS011;69115;49.904;14.390;2023-05-07T08:01:20;8.50;;;5.75;;
79640;SDS011;69115;49.904;14.390;2023-05-07T08:03:45;9.77;;;7.13;;
79640;SDS011;69115;49.904;14.390;2023-05-07T08:06:11;9.25;;;6.38;;
79640;SDS011;69115;49.904;14.390;2023-05-07T08:08:36;11.07;;;7.30;;
79640;SDS011;69115;49.904;14.390;2023-05-07T08:11:01;12.75;;;8.02;;
79640;SDS011;69115;49.904;14.390;2023-05-07T08:13:27;9.63;;;6.57;;
79640;SDS011;69115;49.904;14.390;2023-05-07T08:15:52;10.45;;;7.30;;
79640;SDS011;69115;49.904;14.390;2023-05-07T08:18:17;9.75;;;6.32;;
79640;SDS011;69115;49.904;14.390;2023-05-07T08:20:43;10.65;;;7.13;;
79640;SDS011;69115;49.904;14.390;2023-05-07T08:23:08;9.05;;;6.22;;
79640;SDS011;69115;49.904;14.390;2023-05-07T08:25:34;8.88;;;6.38;;
79640;SDS011;69115;49.904;14.390;2023-05-07T08:28:00;9.45;;;6.80;;
79640;SDS011;69115;49.904;14.390;2023-05-07T08:30:25;10.68;;;7.10;;
79640;SDS011;69115;49.904;14.390;2023-05-07T08:32:51;10.20;;;6.55;;
79640;SDS011;69115;49.904;14.390;2023-05-07T08:35:16;8.95;;;6.28;;
79640;SDS011;69115;49.904;14.390;2023-05-07T08:37:41;8.35;;;5.82;;
79640;SDS011;69115;49.904;14.390;2023-05-07T08:40:07;9.48;;;6.47;;
79640;SDS011;69115;49.904;14.390;2023-05-07T08:42:35;9.25;;;6.07;;
79640;SDS011;69115;49.904;14.390;2023-05-07T08:45:01;8.52;;;6.20;;
79640;SDS011;69115;49.904;14.390;2023-05-07T08:47:33;9.35;;;6.30;;
79640;SDS011;69115;49.904;14.390;2023-05-07T08:50:01;8.55;;;5.70;;
79640;SDS011;69115;49.904;14.390;2023-05-07T08:52:27;8.35;;;6.10;;
79640;SDS011;69115;49.904;14.390;2023-05-07T08:54:52;9.73;;;6.18;;
79640;SDS011;69115;49.904;14.390;2023-05-07T08:57:18;8.23;;;6.22;;
79640;SDS011;69115;49.904;14.390;2023-05-07T08:59:44;9.77;;;6.63;;
79640;SDS011;69115;49.904;14.390;2023-05-07T09:02:10;10.25;;;6.32;;
79640;SDS011;69115;49.904;14.390;2023-05-07T09:04:36;13.95;;;9.85;;
79640;SDS011;69115;49.904;14.390;2023-05-07T09:07:03;11.65;;;6.80;;
79640;SDS011;69115;49.904;14.390;2023-05-07T09:09:32;10.85;;;6.70;;
79640;SDS011;69115;49.904;14.390;2023-05-07T09:11:58;8.57;;;6.63;;
79640;SDS011;69115;49.904;14.390;2023-05-07T09:14:24;11.13;;;7.75;;
79640;SDS011;69115;49.904;14.390;2023-05-07T09:16:51;8.13;;;6.22;;
79640;SDS011;69115;49.904;14.390;2023-05-07T09:19:21;7.97;;;5.50;;
79640;SDS011;69115;49.904;14.390;2023-05-07T09:21:48;30.60;;;15.90;;
79640;SDS011;69115;49.904;14.390;2023-05-07T09:24:15;22.83;;;11.95;;
79640;SDS011;69115;49.904;14.390;2023-05-07T09:26:41;13.27;;;7.68;;
79640;SDS011;69115;49.904;14.390;2023-05-07T09:29:07;10.18;;;6.43;;
79640;SDS011;69115;49.904;14.390;2023-05-07T09:31:36;8.80;;;6.90;;
79640;SDS011;69115;49.904;14.390;2023-05-07T09:34:04;20.25;;;10.38;;
79640;SDS011;69115;49.904;14.390;2023-05-07T09:36:31;14.13;;;7.22;;
79640;SDS011;69115;49.904;14.390;2023-05-07T09:38:58;9.80;;;6.68;;
79640;SDS011;69115;49.904;14.390;2023-05-07T09:41:24;8.95;;;7.40;;
79640;SDS011;69115;49.904;14.390;2023-05-07T09:43:53;9.38;;;6.45;;
79640;SDS011;69115;49.904;14.390;2023-05-07T09:46:19;11.52;;;6.97;;
79640;SDS011;69115;49.904;14.390;2023-05-07T09:48:50;7.63;;;6.03;;
79640;SDS011;69115;49.904;14.390;2023-05-07T09:51:34;8.25;;;5.82;;
79640;SDS011;69115;49.904;14.390;2023-05-07T09:54:04;8.45;;;6.45;;
79640;SDS011;69115;49.904;14.390;2023-05-07T09:56:30;10.85;;;6.05;;
79640;SDS011;69115;49.904;14.390;2023-05-07T09:58:57;8.50;;;6.65;;
79640;SDS011;69115;49.904;14.390;2023-05-07T10:01:27;9.63;;;6.80;;
79640;SDS011;69115;49.904;14.390;2023-05-07T10:03:53;10.90;;;6.57;;
79640;SDS011;69115;49.904;14.390;2023-05-07T10:06:21;8.73;;;6.88;;
79640;SDS011;69115;49.904;14.390;2023-05-07T10:08:47;8.60;;;6.22;;
79640;SDS011;69115;49.904;14.390;2023-05-07T10:11:13;10.05;;;6.88;;
79640;SDS011;69115;49.904;14.390;2023-05-07T10:13:40;8.05;;;5.78;;
79640;SDS011;69115;49.904;14.390;2023-05-07T10:16:06;8.93;;;6.70;;
79640;SDS011;69115;49.904;14.390;2023-05-07T10:18:32;9.25;;;6.28;;
79640;SDS011;69115;49.904;14.390;2023-05-07T10:21:03;7.13;;;5.65;;
79640;SDS011;69115;49.904;14.390;2023-05-07T10:23:32;8.23;;;5.60;;
79640;SDS011;69115;49.904;14.390;2023-05-07T10:25:59;8.27;;;6.18;;
79640;SDS011;69115;49.904;14.390;2023-05-07T10:33:35;9.90;;;7.32;;
79640;SDS011;69115;49.904;14.390;2023-05-07T10:36:02;10.85;;;7.55;;
79640;SDS011;69115;49.904;14.390;2023-05-07T10:38:29;9.02;;;6.60;;
79640;SDS011;69115;49.904;14.390;2023-05-07T10:40:55;9.80;;;7.43;;
79640;SDS011;69115;49.904;14.390;2023-05-07T10:43:20;9.68;;;7.03;;
79640;SDS011;69115;49.904;14.390;2023-05-07T10:46:28;21.23;;;8.27;;
79640;SDS011;69115;49.904;14.390;2023-05-07T10:51:26;9.23;;;7.00;;
79640;SDS011;69115;49.904;14.390;2023-05-07T10:56:36;11.15;;;7.00;;
79640;SDS011;69115;49.904;14.390;2023-05-07T11:01:56;11.00;;;7.60;;
79640;SDS011;69115;49.904;14.390;2023-05-07T11:04:24;10.90;;;8.00;;
79640;SDS011;69115;49.904;14.390;2023-05-07T11:07:10;10.40;;;7.65;;
79640;SDS011;69115;49.904;14.390;2023-05-07T11:15:05;9.00;;;6.35;;
79640;SDS011;69115;49.904;14.390;2023-05-07T11:17:34;11.60;;;7.43;;
79640;SDS011;69115;49.904;14.390;2023-05-07T11:20:00;11.73;;;8.63;;
79640;SDS011;69115;49.904;14.390;2023-05-07T11:25:04;11.00;;;8.10;;
79640;SDS011;69115;49.904;14.390;2023-05-07T11:27:30;11.75;;;8.20;;
79640;SDS011;69115;49.904;14.390;2023-05-07T11:29:56;12.15;;;9.02;;
79640;SDS011;69115;49.904;14.390;2023-05-07T11:32:25;11.52;;;8.10;;
79640;SDS011;69115;49.904;14.390;2023-05-07T11:34:55;10.60;;;7.28;;
79640;SDS011;69115;49.904;14.390;2023-05-07T11:37:21;10.80;;;7.10;;
79640;SDS011;69115;49.904;14.390;2023-05-07T11:39:47;9.98;;;7.53;;
79640;SDS011;69115;49.904;14.390;2023-05-07T11:42:27;12.52;;;7.97;;
79640;SDS011;69115;49.904;14.390;2023-05-07T11:44:57;10.40;;;7.53;;
79640;SDS011;69115;49.904;14.390;2023-05-07T11:47:22;10.63;;;7.55;;
79640;SDS011;69115;49.904;14.390;2023-05-07T11:49:48;11.45;;;7.50;;
79640;SDS011;69115;49.904;14.390;2023-05-07T11:52:14;11.32;;;7.50;;
79640;SDS011;69115;49.904;14.390;2023-05-07T11:54:40;11.50;;;7.03;;
79640;SDS011;69115;49.904;14.390;2023-05-07T11:57:06;10.32;;;7.90;;
79640;SDS011;69115;49.904;14.390;2023-05-07T11:59:39;10.43;;;7.63;;
79640;SDS011;69115;49.904;14.390;2023-05-07T12:02:05;10.77;;;7.75;;
79640;SDS011;69115;49.904;14.390;2023-05-07T12:04:32;12.07;;;8.45;;
79640;SDS011;69115;49.904;14.390;2023-05-07T12:06:57;10.32;;;7.32;;
79640;SDS011;69115;49.904;14.390;2023-05-07T12:09:23;13.25;;;8.95;;
79640;SDS011;69115;49.904;14.390;2023-05-07T12:11:49;12.05;;;7.38;;
79640;SDS011;69115;49.904;14.390;2023-05-07T12:14:14;10.68;;;7.75;;
79640;SDS011;69115;49.904;14.390;2023-05-07T12:16:43;9.90;;;7.22;;
79640;SDS011;69115;49.904;14.390;2023-05-07T12:19:10;11.98;;;7.13;;
79640;SDS011;69115;49.904;14.390;2023-05-07T12:21:37;10.95;;;8.10;;
79640;SDS011;69115;49.904;14.390;2023-05-07T12:24:03;8.40;;;6.03;;
79640;SDS011;69115;49.904;14.390;2023-05-07T12:26:29;9.43;;;6.72;;
79640;SDS011;69115;49.904;14.390;2023-05-07T12:28:56;10.20;;;6.72;;
79640;SDS011;69115;49.904;14.390;2023-05-07T12:31:22;10.57;;;7.15;;
79640;SDS011;69115;49.904;14.390;2023-05-07T12:33:48;10.85;;;7.65;;
79640;SDS011;69115;49.904;14.390;2023-05-07T12:36:13;10.50;;;7.65;;
79640;SDS011;69115;49.904;14.390;2023-05-07T12:38:39;10.75;;;7.93;;
79640;SDS011;69115;49.904;14.390;2023-05-07T12:41:06;9.70;;;6.72;;
79640;SDS011;69115;49.904;14.390;2023-05-07T12:43:36;8.43;;;6.55;;
79640;SDS011;69115;49.904;14.390;2023-05-07T12:46:05;8.35;;;6.80;;
79640;SDS011;69115;49.904;14.390;2023-05-07T12:48:31;9.88;;;7.22;;
79640;SDS011;69115;49.904;14.390;2023-05-07T12:50:58;10.70;;;7.70;;
79640;SDS011;69115;49.904;14.390;2023-05-07T12:53:26;10.35;;;7.32;;
79640;SDS011;69115;49.904;14.390;2023-05-07T12:55:56;9.27;;;6.82;;
79640;SDS011;69115;49.904;14.390;2023-05-07T13:00:56;8.77;;;6.65;;
79640;SDS011;69115;49.904;14.390;2023-05-07T13:03:29;8.63;;;6.47;;
79640;SDS011;69115;49.904;14.390;2023-05-07T13:08:27;7.57;;;5.60;;
79640;SDS011;69115;49.904;14.390;2023-05-07T13:10:53;8.48;;;6.45;;
79640;SDS011;69115;49.904;14.390;2023-05-07T13:13:19;8.55;;;5.75;;
79640;SDS011;69115;49.904;14.390;2023-05-07T13:15:46;9.50;;;6.03;;
79640;SDS011;69115;49.904;14.390;2023-05-07T13:18:29;7.97;;;5.65;;
79640;SDS011;69115;49.904;14.390;2023-05-07T13:20:56;8.52;;;5.80;;
79640;SDS011;69115;49.904;14.390;2023-05-07T13:23:21;7.50;;;5.95;;
79640;SDS011;69115;49.904;14.390;2023-05-07T13:25:47;6.65;;;5.43;;
79640;SDS011;69115;49.904;14.390;2023-05-07T13:28:13;5.20;;;4.32;;
79640;SDS011;69115;49.904;14.390;2023-05-07T13:30:39;6.55;;;5.55;;
79640;SDS011;69115;49.904;14.390;2023-05-07T13:33:06;6.88;;;4.60;;
79640;SDS011;69115;49.904;14.390;2023-05-07T13:35:31;6.65;;;5.30;;
79640;SDS011;69115;49.904;14.390;2023-05-07T13:37:57;6.70;;;5.53;;
79640;SDS011;69115;49.904;14.390;2023-05-07T13:40:22;6.57;;;5.57;;
79640;SDS011;69115;49.904;14.390;2023-05-07T13:42:48;6.90;;;5.68;;
79640;SDS011;69115;49.904;14.390;2023-05-07T13:45:14;6.60;;;5.50;;
79640;SDS011;69115;49.904;14.390;2023-05-07T13:47:40;6.80;;;5.65;;
79640;SDS011;69115;49.904;14.390;2023-05-07T13:50:07;6.88;;;5.90;;
79640;SDS011;69115;49.904;14.390;2023-05-07T13:52:33;6.78;;;5.47;;
79640;SDS011;69115;49.904;14.390;2023-05-07T13:54:59;7.00;;;5.93;;
79640;SDS011;69115;49.904;14.390;2023-05-07T13:57:24;21.58;;;11.10;;
79640;SDS011;69115;49.904;14.390;2023-05-07T13:59:50;11.85;;;7.70;;
79640;SDS011;69115;49.904;14.390;2023-05-07T14:02:15;13.73;;;6.70;;
79640;SDS011;69115;49.904;14.390;2023-05-07T14:04:41;7.20;;;5.50;;
79640;SDS011;69115;49.904;14.390;2023-05-07T14:07:06;6.75;;;5.22;;
79640;SDS011;69115;49.904;14.390;2023-05-07T14:09:32;6.00;;;5.00;;
79640;SDS011;69115;49.904;14.390;2023-05-07T14:11:58;5.00;;;3.92;;
79640;SDS011;69115;49.904;14.390;2023-05-07T14:14:23;5.22;;;4.40;;
79640;SDS011;69115;49.904;14.390;2023-05-07T14:16:49;6.35;;;5.13;;
79640;SDS011;69115;49.904;14.390;2023-05-07T14:19:14;7.85;;;5.95;;
79640;SDS011;69115;49.904;14.390;2023-05-07T14:21:40;6.50;;;5.53;;
79640;SDS011;69115;49.904;14.390;2023-05-07T14:24:06;8.15;;;5.72;;
79640;SDS011;69115;49.904;14.390;2023-05-07T14:26:33;5.55;;;4.50;;
79640;SDS011;69115;49.904;14.390;2023-05-07T14:28:59;7.07;;;5.55;;
79640;SDS011;69115;49.904;14.390;2023-05-07T14:31:24;6.43;;;5.10;;
79640;SDS011;69115;49.904;14.390;2023-05-07T14:33:50;7.57;;;5.80;;
79640;SDS011;69115;49.904;14.390;2023-05-07T14:36:17;15.82;;;8.30;;
79640;SDS011;69115;49.904;14.390;2023-05-07T14:38:44;10.85;;;6.50;;